Time;durP1;ratioP1;P1;durP2;ratioP2;P2;SDS_P1;SDS_P2;PMS_P1;PMS_P2;Temp;Humidity;BMP_temperature;BMP_pressure;BME280_temperature;BME280_humidity;BME280_pressure;Samples;Min_cycle;Max_cycle;Signal;HPM_P1;HPM_P2
2021/04/18 00:00:54;;;;;;;29.02;22.08;;;;;;;-145.19;100.00;59999.88;5030950;28;20049;-67
2021/04/18 00:03:21;;;;;;;27.02;22.17;;;;;;;-145.19;100.00;59999.88;5022213;28;20046;-68
2021/04/18 00:05:48;;;;;;;30.15;24.23;;;;;;;-145.19;100.00;59999.88;5027657;28;20047;-68
2021/04/18 00:08:14;;;;;;;37.40;28.33;;;;;;;-145.19;100.00;59999.88;5029911;28;20124;-68
2021/04/18 00:10:43;;;;;;;29.63;21.83;;;;;;;-145.19;100.00;59999.88;5026442;28;20275;-67
2021/04/18 00:13:12;;;;;;;39.05;28.88;;;;;;;-145.19;100.00;59999.88;5026077;28;20121;-67
2021/04/18 00:15:39;;;;;;;27.10;22.88;;;;;;;-145.19;100.00;59999.88;5029415;28;20103;-67
2021/04/18 00:18:10;;;;;;;26.73;21.60;;;;;;;-145.19;100.00;59999.88;5028100;28;20045;-67
2021/04/18 00:20:37;;;;;;;33.30;27.50;;;;;;;-145.19;100.00;59999.88;5031122;28;20091;-68
2021/04/18 00:23:03;;;;;;;44.20;32.53;;;;;;;-145.19;100.00;59999.88;5028189;28;20497;-67
2021/04/18 00:25:29;;;;;;;30.75;25.40;;;;;;;-145.19;100.00;59999.88;5026917;28;20049;-68
2021/04/18 00:27:55;;;;;;;31.20;26.13;;;;;;;-145.19;100.00;59999.88;5025930;28;20052;-68
2021/04/18 00:30:22;;;;;;;28.23;23.63;;;;;;;-145.19;100.00;59999.88;5028119;28;20570;-69
2021/04/18 00:32:49;;;;;;;30.80;22.77;;;;;;;-145.19;100.00;59999.88;5027579;28;20045;-67
2021/04/18 00:35:17;;;;;;;36.50;27.75;;;;;;;-145.19;100.00;59999.88;5027359;28;20763;-67
2021/04/18 00:37:43;;;;;;;30.65;24.00;;;;;;;-145.19;100.00;59999.88;5028783;28;20049;-67
2021/04/18 00:40:12;;;;;;;33.28;25.33;;;;;;;-145.19;100.00;59999.88;5029468;28;20045;-67
2021/04/18 00:42:39;;;;;;;33.20;27.02;;;;;;;-145.19;100.00;59999.88;5020929;28;20528;-70
2021/04/18 00:45:06;;;;;;;28.10;23.15;;;;;;;-145.19;100.00;59999.88;5026086;28;20048;-67
2021/04/18 00:47:33;;;;;;;;;;;;;;;-145.19;100.00;59999.88;5027902;28;20694;-69
2021/04/18 00:50:00;;;;;;;28.02;21.67;;;;;;;-145.19;100.00;59999.88;5029700;28;19921;-68
2021/04/18 00:52:26;;;;;;;36.65;26.85;;;;;;;-145.19;100.00;59999.88;5029772;28;20041;-68
2021/04/18 00:54:53;;;;;;;43.38;33.10;;;;;;;-145.19;100.00;59999.88;5028738;28;20107;-67
2021/04/18 00:57:19;;;;;;;35.05;29.05;;;;;;;-145.19;100.00;59999.88;5030746;28;20393;-67
2021/04/18 00:59:45;;;;;;;36.50;28.40;;;;;;;-145.19;100.00;59999.88;5022982;28;20042;-68
2021/04/18 01:02:12;;;;;;;33.35;27.83;;;;;;;-145.19;100.00;59999.88;5022179;28;20397;-69
2021/04/18 01:04:38;;;;;;;32.15;24.42;;;;;;;-145.19;100.00;59999.88;5029609;28;20050;-68
2021/04/18 01:07:04;;;;;;;36.03;28.48;;;;;;;-145.19;100.00;59999.88;5028006;28;20111;-67
2021/04/18 01:09:31;;;;;;;31.65;22.42;;;;;;;-145.19;100.00;59999.88;5027646;28;20044;-67
2021/04/18 01:11:59;;;;;;;29.67;24.50;;;;;;;-145.19;100.00;59999.88;5027343;28;20405;-67
2021/04/18 01:14:25;;;;;;;37.42;28.88;;;;;;;-145.19;100.00;59999.88;5028298;28;20099;-68
2021/04/18 01:16:51;;;;;;;31.92;25.92;;;;;;;-145.19;100.00;59999.88;5027003;28;20436;-68
2021/04/18 01:19:17;;;;;;;49.90;36.60;;;;;;;-145.19;100.00;59999.88;5029397;28;20509;-67
2021/04/18 01:21:44;;;;;;;32.10;25.63;;;;;;;-145.19;100.00;59999.88;5043519;28;20236;-67
2021/04/18 01:24:17;;;;;;;33.58;28.25;;;;;;;-145.19;100.00;59999.88;5025628;28;20136;-67
2021/04/18 01:27:05;;;;;;;43.53;31.63;;;;;;;-145.19;100.00;59999.88;5026024;28;20057;-67
2021/04/18 01:29:32;;;;;;;;;;;;;;;-145.19;100.00;59999.88;5028553;28;20440;-68
2021/04/18 01:31:58;;;;;;;39.47;28.88;;;;;;;-145.19;100.00;59999.88;5026999;28;19928;-68
2021/04/18 01:34:25;;;;;;;35.38;27.75;;;;;;;-145.19;100.00;59999.88;5029355;28;20073;-68
2021/04/18 01:36:51;;;;;;;40.17;31.23;;;;;;;-145.19;100.00;59999.88;5029023;28;20054;-68
2021/04/18 01:39:17;;;;;;;33.85;26.90;;;;;;;-145.19;100.00;59999.88;5026539;28;20422;-67
2021/04/18 01:41:44;;;;;;;38.13;27.70;;;;;;;-145.19;100.00;59999.88;5020227;28;20543;-67
2021/04/18 01:44:14;;;;;;;33.08;26.63;;;;;;;-145.19;100.00;59999.88;5029889;28;20323;-67
2021/04/18 01:46:44;;;;;;;48.33;34.65;;;;;;;-145.19;100.00;59999.88;5024015;28;20440;-68
2021/04/18 01:49:12;;;;;;;40.63;30.85;;;;;;;-145.19;100.00;59999.88;5027491;28;20073;-67
2021/04/18 01:51:39;;;;;;;25.65;21.98;;;;;;;-145.19;100.00;59999.88;5025777;28;20464;-68
2021/04/18 01:54:06;;;;;;;28.87;23.20;;;;;;;-145.19;100.00;59999.88;5021992;28;20096;-67
2021/04/18 01:56:32;;;;;;;27.77;22.35;;;;;;;-145.19;100.00;59999.88;5025164;28;20092;-67
2021/04/18 01:59:01;;;;;;;33.28;24.67;;;;;;;-145.19;100.00;59999.88;5028768;28;20333;-68
2021/04/18 02:01:38;;;;;;;33.25;24.20;;;;;;;-145.19;100.00;59999.88;5028904;28;20045;-67
2021/04/18 02:04:28;;;;;;;32.80;27.27;;;;;;;-145.19;100.00;59999.88;5023735;28;20057;-67
2021/04/18 02:07:01;;;;;;;36.97;28.67;;;;;;;-145.19;100.00;59999.88;5022030;28;20096;-67
2021/04/18 02:09:30;;;;;;;43.25;32.78;;;;;;;-145.19;100.00;59999.88;5029147;28;20037;-68
2021/04/18 02:11:58;;;;;;;32.67;26.27;;;;;;;-145.19;100.00;59999.88;5027724;28;20055;-68
2021/04/18 02:14:25;;;;;;;40.22;30.85;;;;;;;-145.19;100.00;59999.88;5029119;28;20042;-68
2021/04/18 02:17:11;;;;;;;41.05;30.42;;;;;;;-145.19;100.00;59999.88;5026012;28;20100;-67
2021/04/18 02:19:39;;;;;;;39.15;28.98;;;;;;;-145.19;100.00;59999.88;5031447;28;20045;-67
2021/04/18 02:22:06;;;;;;;34.45;28.23;;;;;;;-145.19;100.00;59999.88;5031538;28;20130;-68
2021/04/18 02:24:37;;;;;;;39.38;30.77;;;;;;;-145.19;100.00;59999.88;5029996;28;20046;-67
2021/04/18 02:27:04;;;;;;;45.83;33.10;;;;;;;-145.19;100.00;59999.88;5030550;28;20076;-68
2021/04/18 02:29:35;;;;;;;40.00;31.83;;;;;;;-145.19;100.00;59999.88;5027070;28;20034;-68
2021/04/18 02:32:08;;;;;;;37.08;29.02;;;;;;;-145.19;100.00;59999.88;5030798;28;20476;-68
2021/04/18 02:34:42;;;;;;;43.85;32.22;;;;;;;-145.19;100.00;59999.88;5027549;28;20053;-68
2021/04/18 02:37:08;;;;;;;44.72;33.42;;;;;;;-145.19;100.00;59999.88;5030458;28;20116;-68
2021/04/18 02:39:35;;;;;;;74.85;42.40;;;;;;;-145.19;100.00;59999.88;5032133;28;20179;-67
2021/04/18 02:42:02;;;;;;;53.93;38.50;;;;;;;-145.19;100.00;59999.88;5031519;28;20045;-68
2021/04/18 02:44:28;;;;;;;47.78;33.30;;;;;;;-145.19;100.00;59999.88;5020972;28;20629;-67
2021/04/18 02:46:55;;;;;;;46.10;33.03;;;;;;;-145.19;100.00;59999.88;5029876;28;20167;-69
2021/04/18 02:49:22;;;;;;;42.10;33.05;;;;;;;-145.19;100.00;59999.88;5030188;28;20060;-67
2021/04/18 02:51:48;;;;;;;49.97;34.75;;;;;;;-145.19;100.00;59999.88;5022269;28;20129;-68
2021/04/18 02:54:14;;;;;;;37.42;29.77;;;;;;;-145.19;100.00;59999.88;5031504;28;20049;-69
2021/04/18 02:56:47;;;;;;;48.55;33.13;;;;;;;-145.19;100.00;59999.88;5029244;28;20081;-67
2021/04/18 02:59:16;;;;;;;40.38;30.83;;;;;;;-145.19;100.00;59999.88;5041877;28;20561;-68
2021/04/18 03:01:42;;;;;;;38.33;29.92;;;;;;;-145.19;100.00;59999.88;5027435;28;20052;-67
2021/04/18 03:04:09;;;;;;;40.05;30.50;;;;;;;-145.19;100.00;59999.88;5021577;28;20044;-67
2021/04/18 03:06:36;;;;;;;42.95;32.55;;;;;;;-145.19;100.00;59999.88;5029008;28;20408;-67
2021/04/18 03:09:04;;;;;;;62.90;40.40;;;;;;;-145.19;100.00;59999.88;5026317;28;20046;-68
2021/04/18 03:11:32;;;;;;;40.35;30.58;;;;;;;-145.19;100.00;59999.88;5032945;28;20041;-69
2021/04/18 03:14:11;;;;;;;42.72;30.75;;;;;;;-145.19;100.00;59999.88;5027340;28;20042;-68
2021/04/18 03:16:37;;;;;;;64.25;38.33;;;;;;;-145.19;100.00;59999.88;5029523;28;20100;-68
2021/04/18 03:19:05;;;;;;;38.30;29.33;;;;;;;-145.19;100.00;59999.88;5036940;28;20046;-67
2021/04/18 03:21:33;;;;;;;61.77;39.27;;;;;;;-145.19;100.00;59999.88;5030026;28;20103;-68
2021/04/18 03:24:00;;;;;;;71.20;39.33;;;;;;;-145.19;100.00;59999.88;5030228;28;20072;-67
2021/04/18 03:26:27;;;;;;;44.20;31.95;;;;;;;-145.19;100.00;59999.88;5031708;28;20042;-68
2021/04/18 03:28:57;;;;;;;41.67;30.98;;;;;;;-145.19;100.00;59999.88;5027718;28;20057;-68
2021/04/18 03:31:24;;;;;;;36.45;27.67;;;;;;;-145.19;100.00;59999.88;5028951;28;20077;-68
2021/04/18 03:34:02;;;;;;;54.40;36.13;;;;;;;-145.19;100.00;59999.88;5028277;28;20060;-67
2021/04/18 03:36:29;;;;;;;53.30;35.60;;;;;;;-145.19;100.00;59999.88;5031424;28;20120;-68
2021/04/18 03:39:05;;;;;;;45.35;32.92;;;;;;;-145.19;100.00;59999.88;5024608;28;20405;-67
2021/04/18 03:41:32;;;;;;;47.85;32.60;;;;;;;-145.19;100.00;59999.88;5029560;28;20060;-69
2021/04/18 03:43:59;;;;;;;57.13;35.95;;;;;;;-145.19;100.00;59999.88;5032896;28;20057;-68
2021/04/18 03:46:28;;;;;;;40.83;31.38;;;;;;;-145.19;100.00;59999.88;5022241;28;20034;-68
2021/04/18 03:48:57;;;;;;;34.63;27.50;;;;;;;-145.19;100.00;59999.88;5027273;28;20053;-68
2021/04/18 03:51:47;;;;;;;45.65;32.45;;;;;;;-145.19;100.00;59999.88;5019462;28;20064;-68
2021/04/18 03:54:14;;;;;;;48.38;34.33;;;;;;;-145.19;100.00;59999.88;5031650;28;20076;-67
2021/04/18 03:56:41;;;;;;;36.53;28.33;;;;;;;-145.19;100.00;59999.88;5026184;28;20041;-68
2021/04/18 03:59:08;;;;;;;36.67;28.55;;;;;;;-145.19;100.00;59999.88;5030616;28;20056;-67
2021/04/18 04:01:35;;;;;;;48.35;35.13;;;;;;;-145.19;100.00;59999.88;5021685;28;20044;-67
2021/04/18 04:04:04;;;;;;;58.53;39.40;;;;;;;-145.19;100.00;59999.88;5029689;28;20134;-68
2021/04/18 04:06:36;;;;;;;35.28;27.98;;;;;;;-145.19;100.00;59999.88;5044530;28;20496;-67
2021/04/18 04:09:03;;;;;;;37.42;28.58;;;;;;;-145.19;100.00;59999.88;5028256;28;20045;-67
2021/04/18 04:11:47;;;;;;;39.15;29.85;;;;;;;-145.19;100.00;59999.88;5026788;28;20045;-68
2021/04/18 04:14:21;;;;;;;61.65;39.38;;;;;;;-145.19;100.00;59999.88;5026925;28;20046;-67
2021/04/18 04:16:52;;;;;;;52.63;35.90;;;;;;;-145.19;100.00;59999.88;5024989;28;20050;-67
2021/04/18 04:19:22;;;;;;;44.53;33.28;;;;;;;-145.19;100.00;59999.88;5030904;28;20045;-68
2021/04/18 04:22:07;;;;;;;48.03;33.38;;;;;;;-145.19;100.00;59999.88;5026010;28;20367;-67
2021/04/18 04:25:04;;;;;;;50.47;34.53;;;;;;;-145.19;100.00;59999.88;5026037;28;20383;-67
2021/04/18 04:27:30;;;;;;;47.60;32.27;;;;;;;-145.19;100.00;59999.88;5032843;28;20052;-68
2021/04/18 04:29:57;;;;;;;48.20;34.15;;;;;;;-145.19;100.00;59999.88;5021672;28;20275;-67
2021/04/18 04:32:23;;;;;;;43.53;32.88;;;;;;;-145.19;100.00;59999.88;5028013;28;20051;-68
2021/04/18 04:34:50;;;;;;;43.53;33.60;;;;;;;-145.19;100.00;59999.88;5029378;28;20494;-68
2021/04/18 04:37:16;;;;;;;48.28;33.50;;;;;;;-145.19;100.00;59999.88;5026796;28;20046;-68
2021/04/18 04:39:42;;;;;;;36.72;28.33;;;;;;;-145.19;100.00;59999.88;5025332;28;20048;-68
2021/04/18 04:42:08;;;;;;;32.70;27.05;;;;;;;-145.19;100.00;59999.88;5029834;28;20046;-68
2021/04/18 04:44:34;;;;;;;40.15;29.88;;;;;;;-145.19;100.00;59999.88;5027885;28;20060;-68
2021/04/18 04:47:00;;;;;;;48.80;36.10;;;;;;;-145.19;100.00;59999.88;5022066;28;20048;-68
2021/04/18 04:49:27;;;;;;;37.33;29.73;;;;;;;-145.19;100.00;59999.88;5026873;28;20068;-68
2021/04/18 04:51:53;;;;;;;52.92;36.00;;;;;;;-145.19;100.00;59999.88;5028685;28;20049;-68
2021/04/18 04:54:19;;;;;;;57.92;38.50;;;;;;;-145.19;100.00;59999.88;5025930;28;20052;-68
2021/04/18 04:56:45;;;;;;;50.65;34.42;;;;;;;-145.19;100.00;59999.88;5029771;28;20041;-67
2021/04/18 04:59:11;;;;;;;55.83;37.35;;;;;;;-145.19;100.00;59999.88;5030058;28;20049;-67
2021/04/18 05:01:37;;;;;;;38.33;29.90;;;;;;;-145.19;100.00;59999.88;5028930;28;20042;-69
2021/04/18 05:04:04;;;;;;;57.30;39.25;;;;;;;-145.19;100.00;59999.88;5026820;28;20095;-68
2021/04/18 05:06:30;;;;;;;46.35;33.00;;;;;;;-145.19;100.00;59999.88;5028193;28;20152;-68
2021/04/18 05:08:56;;;;;;;43.05;33.55;;;;;;;-145.19;100.00;59999.88;5027048;28;20523;-68
2021/04/18 05:11:22;;;;;;;44.72;33.67;;;;;;;-145.19;100.00;59999.88;5030104;28;20421;-67
2021/04/18 05:13:49;;;;;;;48.08;34.78;;;;;;;-145.19;100.00;59999.88;5028814;28;20397;-68
2021/04/18 05:16:15;;;;;;;42.17;32.60;;;;;;;-145.19;100.00;59999.88;5027606;28;20132;-67
2021/04/18 05:18:44;;;;;;;50.23;35.17;;;;;;;-145.19;100.00;59999.88;5027897;28;20049;-67
2021/04/18 05:21:12;;;;;;;43.25;32.97;;;;;;;-145.19;100.00;59999.88;5029710;28;20294;-68
2021/04/18 05:23:38;;;;;;;38.72;30.13;;;;;;;-145.19;100.00;59999.88;5027353;28;20050;-68
2021/04/18 05:26:05;;;;;;;41.17;30.20;;;;;;;-145.19;100.00;59999.88;5028028;28;20045;-67
2021/04/18 05:28:32;;;;;;;45.50;34.13;;;;;;;-145.19;100.00;59999.88;5027732;28;20041;-68
2021/04/18 05:30:58;;;;;;;44.15;31.92;;;;;;;-145.19;100.00;59999.88;5028145;28;20040;-67
2021/04/18 05:33:25;;;;;;;43.33;32.38;;;;;;;-145.19;100.00;59999.88;5027526;28;20041;-67
2021/04/18 05:35:52;;;;;;;45.55;34.08;;;;;;;-145.19;100.00;59999.88;5026949;28;20076;-68
2021/04/18 05:38:18;;;;;;;52.08;34.58;;;;;;;-145.19;100.00;59999.88;5024700;28;20055;-67
2021/04/18 05:40:45;;;;;;;42.28;30.50;;;;;;;-145.19;100.00;59999.88;5028691;28;20060;-68
2021/04/18 05:43:12;;;;;;;54.95;38.42;;;;;;;-145.19;100.00;59999.88;5029142;28;20397;-68
2021/04/18 05:45:38;;;;;;;43.75;32.72;;;;;;;-145.19;100.00;59999.88;5019871;28;20045;-68
2021/04/18 05:48:05;;;;;;;38.30;28.30;;;;;;;-145.19;100.00;59999.88;5024904;28;20063;-70
2021/04/18 05:50:32;;;;;;;40.37;29.83;;;;;;;-145.19;100.00;59999.88;5033022;28;20047;-72
2021/04/18 05:52:58;;;;;;;46.37;34.53;;;;;;;-145.19;100.00;59999.88;5033467;28;20053;-68
2021/04/18 05:55:24;;;;;;;42.58;32.55;;;;;;;-145.19;100.00;59999.88;5029369;28;20072;-68
2021/04/18 05:57:50;;;;;;;34.42;28.25;;;;;;;-145.19;100.00;59999.88;5032113;28;20045;-68
2021/04/18 06:00:17;;;;;;;45.92;33.17;;;;;;;-145.19;100.00;59999.88;5033545;28;20402;-68
2021/04/18 06:02:43;;;;;;;36.27;27.93;;;;;;;-145.19;100.00;59999.88;5029246;28;20103;-68
2021/04/18 06:05:10;;;;;;;38.95;28.05;;;;;;;-145.19;100.00;59999.88;5029705;28;20041;-67
2021/04/18 06:07:37;;;;;;;38.40;28.73;;;;;;;-145.19;100.00;59999.88;5033039;28;20043;-69
2021/04/18 06:10:04;;;;;;;34.60;26.85;;;;;;;-145.19;100.00;59999.88;5030284;28;20075;-68
2021/04/18 06:12:30;;;;;;;36.83;29.92;;;;;;;-145.19;100.00;59999.88;5029490;28;20046;-68
2021/04/18 06:14:57;;;;;;;40.33;31.27;;;;;;;-145.19;100.00;59999.88;5032869;28;20410;-68
2021/04/18 06:17:23;;;;;;;33.78;26.35;;;;;;;-145.19;100.00;59999.88;5032133;28;20067;-68
2021/04/18 06:19:49;;;;;;;36.20;27.45;;;;;;;-145.19;100.00;59999.88;5029072;28;20069;-68
2021/04/18 06:22:15;;;;;;;35.97;28.88;;;;;;;-145.19;100.00;59999.88;5032120;28;20041;-69
2021/04/18 06:24:42;;;;;;;37.30;29.15;;;;;;;-145.19;100.00;59999.88;5015838;28;20048;-68
2021/04/18 06:27:08;;;;;;;37.65;30.58;;;;;;;-145.19;100.00;59999.88;5029795;28;20049;-67
2021/04/18 06:29:34;;;;;;;42.10;32.35;;;;;;;-145.19;100.00;59999.88;5030654;28;20423;-67
2021/04/18 06:32:00;;;;;;;36.90;28.67;;;;;;;-145.19;100.00;59999.88;5031055;28;20049;-68
2021/04/18 06:34:26;;;;;;;36.60;29.67;;;;;;;-145.19;100.00;59999.88;5027468;28;20440;-69
2021/04/18 06:36:53;;;;;;;47.88;34.28;;;;;;;-145.19;100.00;59999.88;5032840;28;20128;-70
2021/04/18 06:39:19;;;;;;;32.55;26.58;;;;;;;-145.19;100.00;59999.88;5032393;28;20552;-71
2021/04/18 06:41:54;;;;;;;36.45;28.48;;;;;;;-145.19;100.00;59999.88;5030225;28;20488;-69
2021/04/18 06:44:20;;;;;;;37.53;28.85;;;;;;;-145.19;100.00;59999.88;5032332;28;20052;-71
2021/04/18 06:46:51;;;;;;;36.00;29.67;;;;;;;-145.19;100.00;59999.88;5029951;28;20564;-69
2021/04/18 06:49:17;;;;;;;35.30;28.50;;;;;;;-145.19;100.00;59999.88;5030078;28;20115;-70
2021/04/18 06:51:45;;;;;;;38.70;27.40;;;;;;;-145.19;100.00;59999.88;5032437;28;20052;-67
2021/04/18 06:54:11;;;;;;;36.30;28.25;;;;;;;-145.19;100.00;59999.88;5025353;28;20340;-66
2021/04/18 06:56:38;;;;;;;37.55;29.50;;;;;;;-145.19;100.00;59999.88;5031768;28;20124;-67
2021/04/18 06:59:04;;;;;;;34.60;28.48;;;;;;;-145.19;100.00;59999.88;5025946;28;20144;-66
2021/04/18 07:01:31;;;;;;;31.90;25.35;;;;;;;-145.19;100.00;59999.88;5027980;28;20129;-66
2021/04/18 07:04:07;;;;;;;34.70;28.00;;;;;;;-145.19;100.00;59999.88;5029330;28;20091;-66
2021/04/18 07:06:42;;;;;;;30.73;25.58;;;;;;;-145.19;100.00;59999.88;5026269;28;20124;-66
2021/04/18 07:09:09;;;;;;;37.83;28.80;;;;;;;-145.19;100.00;59999.88;5025826;28;20063;-66
2021/04/18 07:11:45;;;;;;;34.33;27.88;;;;;;;-145.19;100.00;59999.88;5025648;28;20045;-66
2021/04/18 07:14:24;;;;;;;34.00;27.45;;;;;;;-145.19;100.00;59999.88;5025360;28;20045;-66
2021/04/18 07:17:03;;;;;;;31.60;25.65;;;;;;;-145.19;100.00;59999.88;5025466;28;20072;-66
2021/04/18 07:19:30;;;;;;;32.53;25.20;;;;;;;-145.19;100.00;59999.88;5027240;28;20056;-66
2021/04/18 07:21:57;;;;;;;33.97;27.15;;;;;;;-145.19;100.00;59999.88;5029177;28;20041;-67
2021/04/18 07:24:25;;;;;;;30.35;25.13;;;;;;;-145.19;100.00;59999.88;5026928;28;20037;-66
2021/04/18 07:27:02;;;;;;;31.88;26.00;;;;;;;-145.19;100.00;59999.88;5029539;28;20041;-66
2021/04/18 07:29:33;;;;;;;27.13;23.50;;;;;;;-145.19;100.00;59999.88;5028884;28;20045;-67
2021/04/18 07:32:16;;;;;;;37.65;29.48;;;;;;;-145.19;100.00;59999.88;5027492;28;20044;-66
2021/04/18 07:34:43;;;;;;;30.48;24.90;;;;;;;-145.19;100.00;59999.88;5026933;28;20489;-66
2021/04/18 07:37:18;;;;;;;30.45;24.70;;;;;;;-145.19;100.00;59999.88;5027572;28;20096;-67
2021/04/18 07:39:59;;;;;;;28.50;24.10;;;;;;;-145.19;100.00;59999.88;5027400;28;20500;-66
2021/04/18 07:42:45;;;;;;;33.53;25.88;;;;;;;-145.19;100.00;59999.88;5024037;28;20581;-63
2021/04/18 07:45:17;;;;;;;30.98;26.73;;;;;;;-145.19;100.00;59999.88;5016970;28;20532;-64
2021/04/18 07:47:46;;;;;;;31.95;22.65;;;;;;;-145.19;100.00;59999.88;5040967;28;20045;-65
2021/04/18 07:50:19;;;;;;;34.17;28.85;;;;;;;-145.19;100.00;59999.88;5025295;28;20079;-65
2021/04/18 07:52:48;;;;;;;32.95;25.48;;;;;;;-145.19;100.00;59999.88;5026325;28;20033;-67
2021/04/18 07:55:16;;;;;;;32.03;27.20;;;;;;;-145.19;100.00;59999.88;5027987;28;20051;-67
2021/04/18 07:57:43;;;;;;;30.85;26.30;;;;;;;-145.19;100.00;59999.88;5026939;28;20047;-68
2021/04/18 08:00:11;;;;;;;27.23;23.77;;;;;;;-145.19;100.00;59999.88;5026115;28;20033;-68
2021/04/18 08:02:49;;;;;;;28.90;22.90;;;;;;;-145.19;100.00;59999.88;5027884;28;20045;-67
2021/04/18 08:05:18;;;;;;;27.35;24.40;;;;;;;-145.19;100.00;59999.88;5027756;28;20072;-66
2021/04/18 08:08:05;;;;;;;27.52;23.77;;;;;;;-145.19;100.00;59999.88;5027825;28;20049;-68
2021/04/18 08:10:41;;;;;;;26.60;22.15;;;;;;;-145.19;100.00;59999.88;5026940;28;20123;-67
2021/04/18 08:13:10;;;;;;;26.25;21.70;;;;;;;-145.19;100.00;59999.88;5028067;28;20045;-67
2021/04/18 08:16:05;;;;;;;29.50;24.88;;;;;;;-145.19;100.00;59999.88;5025419;28;20529;-68
2021/04/18 08:18:39;;;;;;;30.95;23.58;;;;;;;-145.19;100.00;59999.88;5022097;28;20056;-69
2021/04/18 08:21:33;;;;;;;26.90;22.58;;;;;;;-145.19;100.00;59999.88;5027615;28;20040;-67
2021/04/18 08:24:01;;;;;;;26.17;21.73;;;;;;;-145.19;100.00;59999.88;5028373;28;20044;-68
2021/04/18 08:26:31;;;;;;;27.85;23.65;;;;;;;-145.19;100.00;59999.88;5024843;28;20149;-67
2021/04/18 08:28:58;;;;;;;35.65;26.65;;;;;;;-145.19;100.00;59999.88;5025432;28;20450;-67
2021/04/18 08:31:31;;;;;;;31.33;23.95;;;;;;;-145.19;100.00;59999.88;5027500;28;20041;-67
2021/04/18 08:34:00;;;;;;;28.90;24.42;;;;;;;-145.19;100.00;59999.88;5024890;28;20555;-65
2021/04/18 08:36:29;;;;;;;27.08;22.92;;;;;;;-145.19;100.00;59999.88;5025109;28;20053;-65
2021/04/18 08:38:59;;;;;;;27.75;23.90;;;;;;;-145.19;100.00;59999.88;5027212;28;20144;-65
2021/04/18 08:42:01;;;;;;;26.30;23.20;;;;;;;-145.19;100.00;59999.88;5027896;28;20436;-65
2021/04/18 08:44:42;;;;;;;23.40;20.67;;;;;;;-145.19;100.00;59999.88;4991194;28;20432;-65
2021/04/18 08:47:13;;;;;;;35.35;28.55;;;;;;;-145.19;100.00;59999.88;5018102;28;20061;-65
2021/04/18 08:49:44;;;;;;;28.25;24.98;;;;;;;-145.19;100.00;59999.88;5026550;28;20034;-67
2021/04/18 08:52:16;;;;;;;25.73;22.77;;;;;;;-145.19;100.00;59999.88;5025853;28;20073;-67
2021/04/18 08:54:45;;;;;;;27.25;23.20;;;;;;;-145.19;100.00;59999.88;5018137;28;20128;-61
2021/04/18 08:57:20;;;;;;;34.60;26.73;;;;;;;-145.19;100.00;59999.88;5018035;28;20041;-67
2021/04/18 08:59:54;;;;;;;27.42;22.20;;;;;;;-145.19;100.00;59999.88;5019036;28;20352;-67
2021/04/18 09:02:21;;;;;;;28.88;24.90;;;;;;;-145.19;100.00;59999.88;5021230;28;20065;-67
2021/04/18 09:04:49;;;;;;;28.20;22.40;;;;;;;-145.19;100.00;59999.88;5020522;28;20041;-67
2021/04/18 09:07:20;;;;;;;27.17;23.25;;;;;;;-145.19;100.00;59999.88;5023712;28;20049;-66
2021/04/18 09:09:47;;;;;;;24.13;21.48;;;;;;;-145.19;100.00;59999.88;5027759;28;20038;-68
2021/04/18 09:12:16;;;;;;;27.60;23.77;;;;;;;-145.19;100.00;59999.88;5020917;28;20056;-70
2021/04/18 09:14:47;;;;;;;25.05;20.98;;;;;;;-145.19;100.00;59999.88;5026553;28;20408;-67
2021/04/18 09:17:26;;;;;;;25.80;23.00;;;;;;;-145.19;100.00;59999.88;5024260;28;20041;-66
2021/04/18 09:19:54;;;;;;;25.65;21.58;;;;;;;-145.19;100.00;59999.88;5036306;28;20103;-67
2021/04/18 09:22:20;;;;;;;26.52;22.25;;;;;;;-145.19;100.00;59999.88;5026349;28;20041;-66
2021/04/18 09:24:52;;;;;;;28.30;23.58;;;;;;;-145.19;100.00;59999.88;5031245;28;20049;-66
2021/04/18 09:27:33;;;;;;;28.70;24.73;;;;;;;-145.19;100.00;59999.88;5023938;28;20111;-68
2021/04/18 09:30:13;;;;;;;24.13;21.52;;;;;;;-145.19;100.00;59999.88;5026925;28;20105;-66
2021/04/18 09:32:48;;;;;;;23.50;20.75;;;;;;;-145.19;100.00;59999.88;5030806;28;20053;-66
2021/04/18 09:35:20;;;;;;;23.63;21.17;;;;;;;-145.19;100.00;59999.88;5028122;28;20049;-64
2021/04/18 09:38:04;;;;;;;23.13;19.90;;;;;;;-145.19;100.00;59999.88;5025436;28;20048;-65
2021/04/18 09:40:33;;;;;;;26.17;23.33;;;;;;;-145.19;100.00;59999.88;5028848;28;20052;-64
2021/04/18 09:43:01;;;;;;;27.23;24.33;;;;;;;-145.19;100.00;59999.88;5031798;28;20445;-67
2021/04/18 09:45:30;;;;;;;27.42;24.52;;;;;;;-145.19;100.00;59999.88;5029558;28;20556;-65
2021/04/18 09:48:14;;;;;;;28.80;25.15;;;;;;;-145.19;100.00;59999.88;5028476;28;20509;-65
2021/04/18 09:50:41;;;;;;;24.13;21.33;;;;;;;-145.19;100.00;59999.88;5027680;28;20050;-65
2021/04/18 09:53:12;;;;;;;23.58;19.02;;;;;;;-145.19;100.00;59999.88;5030484;28;20120;-65
2021/04/18 09:56:05;;;;;;;24.73;22.02;;;;;;;-145.19;100.00;59999.88;5031504;28;20041;-65
2021/04/18 09:58:31;;;;;;;24.20;21.60;;;;;;;-145.19;100.00;59999.88;5028710;28;20064;-64
2021/04/18 10:00:59;;;;;;;23.83;20.70;;;;;;;-145.19;100.00;59999.88;5034580;28;20045;-70
2021/04/18 10:03:40;;;;;;;24.50;21.17;;;;;;;-145.19;100.00;59999.88;5033793;28;20057;-70
2021/04/18 10:06:09;;;;;;;29.02;22.63;;;;;;;-145.19;100.00;59999.88;5032720;28;20103;-71
2021/04/18 10:08:36;;;;;;;26.13;22.30;;;;;;;-145.19;100.00;59999.88;5033230;28;20042;-68
2021/04/18 10:11:05;;;;;;;24.95;21.15;;;;;;;-145.19;100.00;59999.88;5034639;28;20520;-68
2021/04/18 10:13:43;;;;;;;25.23;21.98;;;;;;;-145.19;100.00;59999.88;5031936;28;20041;-68
2021/04/18 10:16:22;;;;;;;25.75;22.77;;;;;;;-145.19;100.00;59999.88;5031588;28;20056;-68
2021/04/18 10:19:18;;;;;;;27.08;22.42;;;;;;;-145.19;100.00;59999.88;5033317;28;20088;-68
2021/04/18 10:22:03;;;;;;;24.80;20.63;;;;;;;-145.19;100.00;59999.88;5031155;28;20087;-66
2021/04/18 10:24:32;;;;;;;27.13;22.23;;;;;;;-145.19;100.00;59999.88;5027561;28;20049;-68
2021/04/18 10:27:03;;;;;;;27.33;22.77;;;;;;;-145.19;100.00;59999.88;5030720;28;20409;-66
2021/04/18 10:29:30;;;;;;;27.27;22.75;;;;;;;-145.19;100.00;59999.88;5024715;28;20480;-63
2021/04/18 10:31:57;;;;;;;29.92;22.73;;;;;;;-145.19;100.00;59999.88;5022939;28;20046;-62
2021/04/18 10:34:23;;;;;;;27.55;22.25;;;;;;;-145.19;100.00;59999.88;5023479;28;20425;-62
2021/04/18 10:36:50;;;;;;;28.80;23.58;;;;;;;-145.19;100.00;59999.88;5026971;28;20029;-67
2021/04/18 10:39:16;;;;;;;29.52;23.20;;;;;;;-145.19;100.00;59999.88;5029397;28;20042;-67
2021/04/18 10:41:43;;;;;;;26.15;21.42;;;;;;;-145.19;100.00;59999.88;5028953;28;20477;-67
2021/04/18 10:44:15;;;;;;;28.58;22.35;;;;;;;-145.19;100.00;59999.88;5028330;28;20055;-67
2021/04/18 10:46:43;;;;;;;23.55;19.88;;;;;;;-145.19;100.00;59999.88;5028525;28;20056;-67
2021/04/18 10:49:09;;;;;;;25.48;20.23;;;;;;;-145.19;100.00;59999.88;5035982;28;20107;-67
2021/04/18 10:51:35;;;;;;;22.98;18.90;;;;;;;-145.19;100.00;59999.88;5030248;28;20052;-66
2021/04/18 10:54:02;;;;;;;24.13;20.15;;;;;;;-145.19;100.00;59999.88;5030017;28;20046;-66
2021/04/18 10:56:31;;;;;;;21.80;18.48;;;;;;;-145.19;100.00;59999.88;5028232;28;20073;-67
2021/04/18 10:58:57;;;;;;;19.75;16.83;;;;;;;-145.19;100.00;59999.88;5029610;28;20041;-67
2021/04/18 11:01:24;;;;;;;21.63;17.27;;;;;;;-145.19;100.00;59999.88;5030032;28;20409;-67
2021/04/18 11:03:51;;;;;;;;;;;;;;;-145.19;100.00;59999.88;5029518;28;20029;-67
2021/04/18 11:06:18;;;;;;;23.30;19.27;;;;;;;-145.19;100.00;59999.88;5029864;28;19927;-67